< < Back
Terminal Aerodrome Forecast


Current Version              Previous Versions:   1  2  3  4  5  6  7  8  9  

Terminal Aerodrome Forecast

734
FTUS44 KBMX 172300
TAFTCL
TAF
KTCL 172325Z 1800/1824 11006KT P6SM BKN050 OVC120
     FM180800 08007KT P6SM VCSH OVC040=



Latest METAR

150
SAUS70 KWBC 180300 RRB
MTRTCL
METAR KTCL 180253Z AUTO 08006KT 10SM SCT055 17/10 A3022 RMK AO2 SLP232
T01670100 50002


USA.gov is the U.S. government's official web portal to all federal, state and local government web resources and services.